Time;durP1;ratioP1;P1;durP2;ratioP2;P2;SDS_P1;SDS_P2;PMS_P1;PMS_P2;Temp;Humidity;BMP_temperature;BMP_pressure;BME280_temperature;BME280_humidity;BME280_pressure;Samples;Min_cycle;Max_cycle;Signal;HPM_P1;HPM_P2
2021/11/22 00:01:53;;;;;;;5.70;0.73;;;;;;;7.22;98.15;102271.50;5119027;27;20055;-32
2021/11/22 00:04:23;;;;;;;4.28;0.85;;;;;;;7.23;98.26;102275.09;5121110;27;20047;-36
2021/11/22 00:06:51;;;;;;;7.43;1.13;;;;;;;7.22;98.48;102281.75;5125957;27;20497;-35
2021/11/22 00:09:19;;;;;;;4.63;0.82;;;;;;;7.20;98.35;102279.22;5121322;27;20058;-37
2021/11/22 00:11:49;;;;;;;4.78;0.60;;;;;;;7.18;98.49;102286.13;5120819;27;20028;-33
2021/11/22 00:14:17;;;;;;;6.30;0.70;;;;;;;7.14;98.45;102285.75;5123824;27;20061;-36
2021/11/22 00:16:45;;;;;;;9.10;1.45;;;;;;;7.12;98.55;102287.91;5121215;27;20042;-32
2021/11/22 00:19:13;;;;;;;8.25;1.08;;;;;;;7.09;98.87;102290.31;5121312;27;20075;-32
2021/11/22 00:21:42;;;;;;;3.45;0.63;;;;;;;7.07;98.55;102290.56;5122715;27;20067;-34
2021/11/22 00:24:10;;;;;;;5.53;0.73;;;;;;;7.05;98.80;102291.88;5124164;27;20455;-32
2021/11/22 00:26:38;;;;;;;2.53;0.70;;;;;;;7.02;98.57;102289.59;5119367;27;20442;-35
2021/11/22 00:29:05;;;;;;;3.30;0.60;;;;;;;7.00;98.65;102300.94;5117571;27;20043;-33
2021/11/22 00:32:08;;;;;;;4.72;0.60;;;;;;;6.92;98.23;102301.31;5102499;27;20054;-35
2021/11/22 00:35:09;;;;;;;3.40;0.93;;;;;;;6.87;98.33;102298.41;5120966;27;20054;-34
2021/11/22 00:37:45;;;;;;;7.25;0.70;;;;;;;6.85;98.83;102297.78;5118336;27;20055;-36
2021/11/22 00:40:14;;;;;;;3.42;0.60;;;;;;;6.82;98.44;102306.59;5123601;27;20051;-36
2021/11/22 00:42:45;;;;;;;4.35;0.60;;;;;;;6.78;98.91;102303.47;5122263;27;20051;-33
2021/11/22 00:45:13;;;;;;;4.28;0.52;;;;;;;6.72;98.98;102304.41;5120382;27;20123;-34
2021/11/22 00:47:41;;;;;;;1.13;0.30;;;;;;;6.69;99.10;102309.59;5122374;27;20046;-35
2021/11/22 00:50:10;;;;;;;4.57;0.73;;;;;;;6.66;99.05;102315.59;5123215;27;20043;-34
2021/11/22 00:52:37;;;;;;;2.05;0.55;;;;;;;6.63;99.42;102322.47;5119721;27;20053;-31
2021/11/22 00:55:08;;;;;;;6.47;0.65;;;;;;;6.60;99.39;102322.09;5119201;27;20181;-29
2021/11/22 00:57:36;;;;;;;4.68;0.80;;;;;;;6.55;99.41;102329.22;5125246;27;20044;-33
2021/11/22 01:00:06;;;;;;;3.60;0.70;;;;;;;6.53;99.67;102328.59;5123699;27;20051;-35
2021/11/22 01:02:35;;;;;;;3.65;0.60;;;;;;;6.50;100.00;102342.94;5116850;27;20047;-31
2021/11/22 01:05:03;;;;;;;4.53;0.43;;;;;;;6.48;100.00;102358.13;5119386;27;20047;-29
2021/11/22 01:07:31;;;;;;;4.93;0.60;;;;;;;6.48;100.00;102360.88;5114131;27;20059;-34
2021/11/22 01:10:00;;;;;;;3.53;0.77;;;;;;;6.49;100.00;102357.03;5120960;27;20058;-32
2021/11/22 01:12:29;;;;;;;4.18;0.55;;;;;;;6.52;100.00;102371.28;5128371;28;20085;-31
2021/11/22 01:14:58;;;;;;;4.00;0.80;;;;;;;6.54;100.00;102371.91;5119640;28;20058;-34
2021/11/22 01:17:26;;;;;;;4.43;0.70;;;;;;;6.56;100.00;102366.13;5116203;28;20050;-30
2021/11/22 01:19:54;;;;;;;8.82;0.95;;;;;;;6.57;100.00;102374.19;5122953;28;20043;-32
2021/11/22 01:22:24;;;;;;;4.50;0.63;;;;;;;6.59;100.00;102373.13;5124927;28;20049;-32
2021/11/22 01:24:52;;;;;;;3.72;0.52;;;;;;;6.59;100.00;102367.56;5119240;28;20123;-32
2021/11/22 01:27:41;;;;;;;4.70;0.60;;;;;;;6.56;100.00;102378.06;5116657;28;20044;-32
2021/11/22 01:30:11;;;;;;;3.95;0.50;;;;;;;6.54;100.00;102383.00;5123547;28;20501;-30
2021/11/22 01:32:41;;;;;;;3.85;0.50;;;;;;;6.51;100.00;102383.47;5126074;27;20051;-34
2021/11/22 01:35:09;;;;;;;3.50;0.57;;;;;;;6.49;100.00;102384.75;5119256;27;20054;-36
2021/11/22 01:37:37;;;;;;;2.63;0.40;;;;;;;6.46;100.00;102386.06;5123284;27;20498;-35
2021/11/22 01:40:08;;;;;;;4.20;0.50;;;;;;;6.41;100.00;102399.78;5121364;27;20051;-32
2021/11/22 01:42:38;;;;;;;3.40;0.40;;;;;;;6.38;100.00;102402.22;5124562;27;20047;-34
2021/11/22 01:45:09;;;;;;;2.22;0.38;;;;;;;6.33;100.00;102411.22;5128530;27;20049;-37
2021/11/22 01:47:37;;;;;;;3.63;0.65;;;;;;;6.28;100.00;102408.28;5124963;27;20039;-36
2021/11/22 01:50:08;;;;;;;4.65;0.52;;;;;;;6.26;100.00;102410.44;5122839;27;20039;-33
2021/11/22 01:52:39;;;;;;;6.35;0.50;;;;;;;6.21;100.00;102408.38;5126444;27;20406;-33
2021/11/22 01:55:08;;;;;;;6.00;0.70;;;;;;;6.17;100.00;102407.16;5125288;27;20133;-36
2021/11/22 01:57:36;;;;;;;4.30;0.50;;;;;;;6.17;100.00;102407.16;5126440;27;20039;-38
2021/11/22 02:00:09;;;;;;;4.60;0.40;;;;;;;6.16;100.00;102412.94;5124543;27;20451;-39
2021/11/22 02:02:38;;;;;;;1.58;0.30;;;;;;;6.12;100.00;102417.25;5125863;27;20408;-35
2021/11/22 02:05:07;;;;;;;1.85;0.30;;;;;;;6.11;100.00;102418.31;5123780;27;20059;-34
2021/11/22 02:07:35;;;;;;;4.72;0.47;;;;;;;6.10;100.00;102422.16;5127656;27;20054;-41
2021/11/22 02:10:03;;;;;;;4.55;0.50;;;;;;;6.09;100.00;102420.47;5120914;27;20094;-32
2021/11/22 02:12:32;;;;;;;2.58;0.30;;;;;;;6.07;100.00;102430.94;5122276;27;20056;-35
2021/11/22 02:15:00;;;;;;;4.10;0.50;;;;;;;6.05;100.00;102424.78;5129519;27;20043;-37
2021/11/22 02:17:29;;;;;;;3.53;0.52;;;;;;;6.05;100.00;102431.16;5126398;27;20047;-34
2021/11/22 02:20:02;;;;;;;4.28;0.40;;;;;;;6.04;100.00;102440.56;5118177;27;20070;-35
2021/11/22 02:22:31;;;;;;;4.22;0.60;;;;;;;6.04;100.00;102442.47;5122753;27;20074;-33
2021/11/22 02:24:59;;;;;;;5.75;0.52;;;;;;;6.06;100.00;102445.88;5130791;27;20052;-37
2021/11/22 02:27:27;;;;;;;5.38;0.65;;;;;;;6.11;100.00;102443.25;5123728;27;20045;-34
2021/11/22 02:29:55;;;;;;;2.75;0.40;;;;;;;6.15;100.00;102452.81;5117762;27;20047;-30
2021/11/22 02:32:23;;;;;;;3.80;0.60;;;;;;;6.20;100.00;102452.94;5125788;27;20043;-32
2021/11/22 02:34:51;;;;;;;2.55;0.45;;;;;;;6.24;100.00;102451.41;5120573;27;20091;-34
2021/11/22 02:37:22;;;;;;;5.43;0.68;;;;;;;6.25;100.00;102449.47;5126010;27;20077;-36
2021/11/22 02:39:50;;;;;;;4.65;0.50;;;;;;;6.25;100.00;102453.09;5127526;27;20047;-34
2021/11/22 02:42:23;;;;;;;3.90;0.60;;;;;;;6.27;100.00;102448.19;5121457;27;20071;-33
2021/11/22 02:44:51;;;;;;;3.53;0.50;;;;;;;6.26;100.00;102449.25;5120688;27;20083;-32
2021/11/22 02:47:20;;;;;;;2.85;0.40;;;;;;;6.25;100.00;102458.66;5120595;27;20131;-36
2021/11/22 02:49:48;;;;;;;2.55;0.32;;;;;;;6.23;100.00;102456.09;5124040;27;20078;-30
2021/11/22 02:52:16;;;;;;;2.22;0.20;;;;;;;6.22;100.00;102461.88;5126138;27;20161;-35
2021/11/22 02:54:46;;;;;;;1.10;0.40;;;;;;;6.20;100.00;102462.09;5122771;27;20051;-33
2021/11/22 02:57:16;;;;;;;1.80;0.30;;;;;;;6.18;100.00;102460.66;5122234;27;20051;-32
2021/11/22 02:59:44;;;;;;;1.80;0.40;;;;;;;6.14;100.00;102467.75;5124679;27;20054;-32
2021/11/22 03:02:14;;;;;;;2.13;0.38;;;;;;;6.10;100.00;102470.13;5123642;27;20047;-36
2021/11/22 03:04:44;;;;;;;1.58;0.40;;;;;;;6.08;100.00;102474.19;5125330;27;20059;-31
2021/11/22 03:07:13;;;;;;;2.72;0.32;;;;;;;6.06;100.00;102476.34;5122454;27;20523;-37
2021/11/22 03:09:41;;;;;;;1.67;0.38;;;;;;;6.04;100.00;102478.50;5126215;27;20078;-34
2021/11/22 03:12:13;;;;;;;1.38;0.30;;;;;;;6.03;100.00;102479.56;5120633;27;20042;-32
2021/11/22 03:14:42;;;;;;;1.90;0.45;;;;;;;6.02;100.00;102492.59;5120799;27;20051;-31
2021/11/22 03:17:10;;;;;;;4.32;0.50;;;;;;;6.01;100.00;102495.56;5127528;27;20044;-38
2021/11/22 03:19:37;;;;;;;2.33;0.30;;;;;;;5.99;100.00;102497.75;5125815;27;20061;-32
2021/11/22 03:22:06;;;;;;;2.83;0.40;;;;;;;5.97;100.00;102503.53;5117309;27;20039;-30
2021/11/22 03:24:34;;;;;;;3.58;0.40;;;;;;;5.95;100.00;102510.38;5122571;27;20036;-34
2021/11/22 03:27:02;;;;;;;2.17;0.30;;;;;;;5.90;100.00;102497.19;5129550;27;20049;-36
2021/11/22 03:29:32;;;;;;;1.83;0.40;;;;;;;5.86;100.00;102505.06;5122310;27;20043;-35
2021/11/22 03:31:59;;;;;;;3.97;0.40;;;;;;;5.82;100.00;102511.28;5117372;27;20074;-38
2021/11/22 03:34:28;;;;;;;2.13;0.30;;;;;;;5.80;100.00;102513.44;5121532;27;20138;-31
2021/11/22 03:37:01;;;;;;;2.83;0.50;;;;;;;5.76;100.00;102521.38;5119397;27;20125;-34
2021/11/22 03:39:31;;;;;;;3.40;0.50;;;;;;;5.73;100.00;102510.75;5125542;27;20043;-33
2021/11/22 03:42:01;;;;;;;2.65;0.30;;;;;;;5.72;100.00;102513.75;5125456;27;20411;-34
2021/11/22 03:44:29;;;;;;;2.33;0.40;;;;;;;5.69;100.00;102520.56;5125335;27;20055;-40
2021/11/22 03:46:58;;;;;;;1.40;0.50;;;;;;;5.67;100.00;102516.34;5125552;27;20043;-32
2021/11/22 03:49:28;;;;;;;1.65;0.30;;;;;;;5.64;100.00;102522.31;5118780;27;20039;-33
2021/11/22 03:51:55;;;;;;;2.33;0.20;;;;;;;5.62;100.00;102530.00;5122295;27;20043;-35
2021/11/22 03:54:23;;;;;;;1.55;0.30;;;;;;;5.58;100.00;102518.56;5125511;27;20070;-37
2021/11/22 03:56:51;;;;;;;6.20;0.50;;;;;;;5.55;100.00;102521.78;5121741;27;20493;-30
2021/11/22 03:59:19;;;;;;;4.22;0.43;;;;;;;5.52;100.00;102525.84;5121163;27;20503;-35
2021/11/22 04:01:47;;;;;;;1.77;0.38;;;;;;;5.48;100.00;102523.72;5123452;27;20039;-39
2021/11/22 04:04:16;;;;;;;0.88;0.20;;;;;;;5.43;100.00;102532.69;5122289;27;20058;-33
2021/11/22 04:06:44;;;;;;;0.80;0.17;;;;;;;5.41;100.00;102534.00;5121621;27;20047;-37
2021/11/22 04:09:12;;;;;;;1.58;0.30;;;;;;;5.36;100.00;102539.38;5123257;27;20059;-35
2021/11/22 04:11:40;;;;;;;1.50;0.20;;;;;;;5.33;100.00;102531.50;5125028;27;20490;-33
2021/11/22 04:14:08;;;;;;;0.68;0.13;;;;;;;5.30;100.00;102537.50;5118927;27;20050;-37
2021/11/22 04:16:35;;;;;;;1.50;0.25;;;;;;;5.26;100.00;102544.53;5119194;27;20459;-34
2021/11/22 04:19:03;;;;;;;1.70;0.30;;;;;;;5.20;100.00;102549.88;5127830;27;20050;-34
2021/11/22 04:21:32;;;;;;;0.80;0.20;;;;;;;5.15;100.00;102546.97;5122916;27;20065;-32
2021/11/22 04:24:02;;;;;;;0.85;0.20;;;;;;;5.09;100.00;102547.84;5115040;27;20043;-32
2021/11/22 04:26:29;;;;;;;0.70;0.15;;;;;;;5.05;100.00;102562.31;5122255;27;20397;-32
2021/11/22 04:28:59;;;;;;;0.47;0.10;;;;;;;4.99;100.00;102557.69;5128947;27;20126;-34
2021/11/22 04:31:27;;;;;;;0.45;0.20;;;;;;;4.92;100.00;102563.25;5127729;27;20042;-32
2021/11/22 04:33:55;;;;;;;1.48;0.40;;;;;;;4.87;100.00;102565.81;5128125;27;20413;-37
2021/11/22 04:36:23;;;;;;;1.73;0.40;;;;;;;4.80;100.00;102565.84;5119645;27;20409;-38
2021/11/22 04:38:52;;;;;;;1.85;0.70;;;;;;;4.77;100.00;102576.50;5118685;27;20062;-32
2021/11/22 04:41:21;;;;;;;1.80;0.50;;;;;;;4.75;100.00;102584.19;5124070;27;20406;-31
2021/11/22 04:43:49;;;;;;;3.25;0.60;;;;;;;4.74;100.00;102593.53;5123912;27;20043;-33
2021/11/22 04:46:16;;;;;;;1.73;0.63;;;;;;;4.74;100.00;102599.06;5118187;27;20039;-32
2021/11/22 04:48:44;;;;;;;3.42;0.57;;;;;;;4.78;100.00;102608.63;5121840;27;20039;-34
2021/11/22 04:51:14;;;;;;;3.38;0.45;;;;;;;4.88;100.00;102611.78;5123715;27;20055;-33
2021/11/22 04:53:41;;;;;;;2.83;0.40;;;;;;;4.98;100.00;102611.31;5120527;27;20054;-34
2021/11/22 04:56:10;;;;;;;2.20;0.43;;;;;;;5.08;100.00;102600.63;5120985;27;20044;-32
2021/11/22 04:58:38;;;;;;;2.03;0.30;;;;;;;5.16;100.00;102597.63;5122514;27;20055;-35
2021/11/22 05:01:06;;;;;;;3.00;0.40;;;;;;;5.24;100.00;102602.03;5121535;27;20428;-31
2021/11/22 05:03:34;;;;;;;1.40;0.25;;;;;;;5.28;100.00;102606.91;5120195;27;20038;-33
2021/11/22 05:06:02;;;;;;;5.20;0.65;;;;;;;5.32;100.00;102608.16;5122487;27;20051;-34
2021/11/22 05:08:30;;;;;;;1.98;0.30;;;;;;;5.33;100.00;102606.25;5123728;27;20137;-39
2021/11/22 05:10:58;;;;;;;2.97;0.40;;;;;;;5.36;100.00;102605.81;5117903;27;20043;-33
2021/11/22 05:13:27;;;;;;;1.85;0.30;;;;;;;5.37;100.00;102604.75;5117784;28;20182;-38
2021/11/22 05:15:54;;;;;;;0.98;0.30;;;;;;;5.37;100.00;102607.50;5127175;28;20035;-35
2021/11/22 05:18:22;;;;;;;2.20;0.20;;;;;;;5.36;100.00;102616.88;5122437;28;20568;-34
2021/11/22 05:20:51;;;;;;;3.90;0.40;;;;;;;5.33;100.00;102612.63;5114032;28;20048;-38
2021/11/22 05:23:18;;;;;;;1.15;0.38;;;;;;;5.32;100.00;102616.47;5122088;27;20486;-35
2021/11/22 05:25:46;;;;;;;3.58;0.60;;;;;;;5.31;100.00;102622.22;5126910;28;20164;-32
2021/11/22 05:28:14;;;;;;;3.15;0.50;;;;;;;5.29;100.00;102621.59;5118843;28;20387;-35
2021/11/22 05:30:43;;;;;;;1.45;0.40;;;;;;;5.26;100.00;102622.88;5117142;28;20044;-37
2021/11/22 05:33:11;;;;;;;0.95;0.30;;;;;;;5.24;100.00;102621.41;5117308;27;20044;-35
2021/11/22 05:35:38;;;;;;;1.95;0.30;;;;;;;5.20;100.00;102619.06;5124399;28;20091;-33
2021/11/22 05:38:06;;;;;;;1.40;0.28;;;;;;;5.16;100.00;102620.59;5118270;28;20135;-36
2021/11/22 05:40:39;;;;;;;0.82;0.28;;;;;;;5.11;100.00;102622.31;5119229;28;20104;-34
2021/11/22 05:43:07;;;;;;;3.60;0.30;;;;;;;5.04;100.00;102635.31;5124598;28;20138;-31
2021/11/22 05:45:36;;;;;;;1.67;0.30;;;;;;;5.00;100.00;102642.34;5121710;28;20464;-34
2021/11/22 05:48:07;;;;;;;1.27;0.30;;;;;;;4.95;100.00;102639.41;5117978;28;20044;-31
2021/11/22 05:50:35;;;;;;;0.82;0.25;;;;;;;4.90;100.00;102642.84;5122816;28;20070;-38
2021/11/22 05:53:03;;;;;;;2.97;0.40;;;;;;;4.84;100.00;102636.25;5121721;28;20071;-33
2021/11/22 05:55:34;;;;;;;1.70;0.32;;;;;;;4.79;100.00;102638.00;5119473;28;20051;-33
2021/11/22 05:58:03;;;;;;;0.68;0.20;;;;;;;4.75;100.00;102648.63;5120923;28;20048;-30
2021/11/22 06:00:31;;;;;;;0.75;0.20;;;;;;;4.71;100.00;102657.56;5122350;28;20051;-35
2021/11/22 06:02:59;;;;;;;1.88;0.38;;;;;;;4.66;100.00;102665.66;5119456;28;20070;-31
2021/11/22 06:05:29;;;;;;;1.67;0.30;;;;;;;4.62;100.00;102668.00;5118119;28;20043;-32
2021/11/22 06:07:56;;;;;;;1.67;0.22;;;;;;;4.58;100.00;102669.53;5123863;28;20071;-34
2021/11/22 06:10:24;;;;;;;1.23;0.30;;;;;;;4.56;100.00;102677.16;5123377;28;20063;-32
2021/11/22 06:12:52;;;;;;;1.70;0.40;;;;;;;4.54;100.00;102678.44;5115518;28;20049;-35
2021/11/22 06:15:20;;;;;;;2.63;0.45;;;;;;;4.55;100.00;102682.91;5118436;28;20498;-34
2021/11/22 06:17:48;;;;;;;3.05;0.40;;;;;;;4.55;100.00;102685.69;5127658;27;20051;-36
2021/11/22 06:20:17;;;;;;;1.52;0.30;;;;;;;4.55;100.00;102688.44;5123766;27;20046;-33
2021/11/22 06:22:46;;;;;;;2.67;0.30;;;;;;;4.56;100.00;102702.06;5117465;27;20092;-29
2021/11/22 06:25:14;;;;;;;1.02;0.30;;;;;;;4.58;100.00;102699.94;5122347;27;20181;-31
2021/11/22 06:27:44;;;;;;;1.75;0.20;;;;;;;4.61;100.00;102704.16;5119237;27;20047;-33
2021/11/22 06:30:12;;;;;;;0.40;0.10;;;;;;;4.65;100.00;102710.97;5124906;27;20493;-35
2021/11/22 06:32:40;;;;;;;0.65;0.20;;;;;;;4.69;100.00;102715.84;5125592;27;20051;-29
2021/11/22 06:35:08;;;;;;;2.47;0.47;;;;;;;4.71;100.00;102710.97;5125154;27;20135;-35
2021/11/22 06:37:36;;;;;;;1.08;0.20;;;;;;;4.70;100.00;102716.69;5126146;27;20047;-31
2021/11/22 06:40:08;;;;;;;0.40;0.10;;;;;;;4.71;100.00;102721.16;5127468;27;20047;-35
2021/11/22 06:42:36;;;;;;;0.57;0.20;;;;;;;4.69;100.00;102724.16;5125562;27;20058;-33
2021/11/22 06:45:05;;;;;;;1.55;0.30;;;;;;;4.68;100.00;102733.50;5120066;27;20043;-29
2021/11/22 06:47:33;;;;;;;2.28;0.50;;;;;;;4.68;100.00;102738.19;5123322;27;20047;-35
2021/11/22 06:50:01;;;;;;;2.53;0.70;;;;;;;4.72;100.00;102745.00;5122394;27;20633;-30
2021/11/22 06:52:29;;;;;;;3.20;0.63;;;;;;;4.78;100.00;102738.63;5124597;27;20044;-36
2021/11/22 06:54:57;;;;;;;2.13;0.43;;;;;;;4.85;100.00;102736.66;5123971;27;20043;-32
2021/11/22 06:57:28;;;;;;;2.15;0.50;;;;;;;4.93;100.00;102738.38;5122052;27;20047;-36
2021/11/22 06:59:56;;;;;;;1.48;0.50;;;;;;;4.97;100.00;102748.81;5124679;27;20071;-32
2021/11/22 07:02:24;;;;;;;3.40;0.60;;;;;;;5.02;100.00;102746.22;5126081;27;20035;-34
2021/11/22 07:04:54;;;;;;;1.55;0.43;;;;;;;5.05;100.00;102748.56;5118659;27;20050;-33
2021/11/22 07:07:21;;;;;;;1.85;0.45;;;;;;;5.06;100.00;102758.56;5120847;27;20086;-38
2021/11/22 07:09:49;;;;;;;3.75;0.50;;;;;;;5.06;100.00;102755.78;5127655;27;20047;-36
2021/11/22 07:12:17;;;;;;;3.42;0.50;;;;;;;5.08;100.00;102759.19;5124823;27;20054;-36
2021/11/22 07:14:47;;;;;;;1.63;0.40;;;;;;;5.09;100.00;102773.88;5115932;27;20051;-38
2021/11/22 07:17:16;;;;;;;2.33;0.80;;;;;;;5.09;100.00;102773.88;5121936;27;20142;-33
2021/11/22 07:19:44;;;;;;;1.63;0.40;;;;;;;5.06;100.00;102775.16;5129239;27;20509;-37
2021/11/22 07:22:13;;;;;;;2.20;0.70;;;;;;;5.07;100.00;102776.00;5122172;27;20137;-37
2021/11/22 07:24:44;;;;;;;2.00;0.73;;;;;;;5.04;100.00;102791.13;5116687;27;20054;-38
2021/11/22 07:27:12;;;;;;;2.05;0.75;;;;;;;5.01;100.00;102780.47;5125261;27;20068;-38
2021/11/22 07:29:41;;;;;;;2.65;0.95;;;;;;;5.00;100.00;102786.22;5126892;27;20054;-34
2021/11/22 07:32:11;;;;;;;3.97;1.35;;;;;;;4.95;100.00;102786.88;5121327;27;20082;-34
2021/11/22 07:34:40;;;;;;;3.53;1.50;;;;;;;4.91;100.00;102791.13;5126541;27;20408;-28
2021/11/22 07:37:08;;;;;;;3.03;1.40;;;;;;;4.88;100.00;102796.25;5120699;27;20142;-34
2021/11/22 07:39:41;;;;;;;1.75;0.70;;;;;;;4.84;100.00;102791.13;5120586;27;20040;-34
2021/11/22 07:42:10;;;;;;;2.08;0.80;;;;;;;4.83;100.00;102799.66;5126467;27;20043;-34
2021/11/22 07:44:38;;;;;;;2.65;1.10;;;;;;;4.80;100.00;102795.38;5123956;27;20507;-32
2021/11/22 07:47:10;;;;;;;2.33;0.70;;;;;;;4.78;100.00;102793.94;5119111;27;20047;-34
2021/11/22 07:49:38;;;;;;;2.33;0.75;;;;;;;4.76;100.00;102805.19;5124002;27;20048;-35
2021/11/22 07:52:07;;;;;;;1.92;0.60;;;;;;;4.72;100.00;102803.06;5123176;27;20047;-41
2021/11/22 07:54:35;;;;;;;1.90;0.75;;;;;;;4.70;100.00;102810.72;5121017;27;20043;-37
2021/11/22 07:57:04;;;;;;;1.45;0.55;;;;;;;4.67;100.00;102812.00;5122411;27;20062;-32
2021/11/22 07:59:32;;;;;;;1.58;0.57;;;;;;;4.65;100.00;102816.03;5124403;27;20036;-35
2021/11/22 08:02:01;;;;;;;2.05;0.70;;;;;;;4.61;100.00;102817.50;5121565;27;20454;-36
2021/11/22 08:04:30;;;;;;;1.60;0.65;;;;;;;4.59;100.00;102830.72;5125313;27;20451;-30
2021/11/22 08:07:01;;;;;;;2.50;0.60;;;;;;;4.57;100.00;102824.56;5120245;27;20051;-32
2021/11/22 08:09:31;;;;;;;2.50;0.57;;;;;;;4.57;100.00;102830.09;5119367;27;20092;-37
2021/11/22 08:14:44;;;;;;;2.22;0.70;;;;;;;4.72;100.00;102841.78;5124665;27;20040;-33
2021/11/22 08:17:12;;;;;;;3.15;0.80;;;;;;;4.84;100.00;102840.06;5119295;27;20051;-38
2021/11/22 08:19:41;;;;;;;2.47;0.80;;;;;;;4.95;100.00;102842.22;5119640;27;20079;-41
2021/11/22 08:22:10;;;;;;;1.17;0.55;;;;;;;5.07;100.00;102842.41;5126995;27;20050;-35
2021/11/22 08:24:38;;;;;;;2.08;0.57;;;;;;;5.18;100.00;102839.88;5123738;27;20523;-32
2021/11/22 08:27:06;;;;;;;1.33;0.47;;;;;;;5.31;100.00;102846.44;5115351;27;20508;-35
2021/11/22 08:29:35;;;;;;;2.47;0.90;;;;;;;5.43;100.00;102848.31;5121745;27;20048;-35
2021/11/22 08:32:03;;;;;;;4.22;0.80;;;;;;;5.60;100.00;102859.75;5128608;27;20138;-37
2021/11/22 08:34:31;;;;;;;2.22;1.02;;;;;;;5.81;100.00;102862.25;5121164;27;20054;-37
2021/11/22 08:37:00;;;;;;;2.25;0.90;;;;;;;6.11;100.00;102868.16;5126323;27;20051;-37
2021/11/22 08:39:29;;;;;;;5.88;1.23;;;;;;;6.46;100.00;102868.59;5119672;27;20039;-35
2021/11/22 08:41:56;;;;;;;4.53;1.23;;;;;;;6.93;100.00;102874.66;5118447;27;20410;-35
2021/11/22 08:44:24;;;;;;;3.25;1.40;;;;;;;7.45;100.00;102870.56;5123691;27;20179;-38
2021/11/22 08:46:52;;;;;;;4.10;1.35;;;;;;;7.99;100.00;102871.69;5123905;27;20054;-34
2021/11/22 08:49:20;;;;;;;4.88;1.50;;;;;;;8.57;100.00;102885.03;5117700;27;20058;-38
2021/11/22 08:51:48;;;;;;;4.38;1.30;;;;;;;9.13;100.00;102873.44;5121847;27;20043;-38
2021/11/22 08:54:17;;;;;;;4.70;1.55;;;;;;;9.77;100.00;102881.91;5124281;27;20040;-35
2021/11/22 08:56:46;;;;;;;5.93;1.40;;;;;;;10.36;100.00;102886.28;5120045;27;20047;-34
2021/11/22 08:59:16;;;;;;;4.53;1.50;;;;;;;10.91;100.00;102883.69;5120762;27;20524;-36
2021/11/22 09:01:44;;;;;;;5.88;1.40;;;;;;;11.44;100.00;102887.09;5122859;27;20051;-38
2021/11/22 09:04:14;;;;;;;4.15;1.27;;;;;;;11.94;98.18;102890.69;5120873;27;20050;-34
2021/11/22 09:06:42;;;;;;;4.28;1.30;;;;;;;12.45;95.18;102899.72;5120372;27;20133;-35
2021/11/22 09:09:10;;;;;;;5.25;1.20;;;;;;;12.92;91.92;102899.94;5122712;27;20143;-33
2021/11/22 09:11:40;;;;;;;4.72;1.23;;;;;;;13.36;89.11;102909.06;5123558;27;20039;-34
2021/11/22 09:14:08;;;;;;;4.25;1.17;;;;;;;13.75;87.47;102897.56;5118164;28;20038;-39
2021/11/22 09:16:36;;;;;;;4.55;1.50;;;;;;;14.14;84.71;102904.53;5118973;28;20085;-35
2021/11/22 09:19:05;;;;;;;3.78;1.00;;;;;;;14.52;81.44;102910.88;5125677;28;20043;-34
2021/11/22 09:21:33;;;;;;;4.80;1.25;;;;;;;14.83;79.56;102897.75;5123360;28;20512;-38
2021/11/22 09:24:03;;;;;;;3.00;0.93;;;;;;;15.12;77.50;102910.19;5114328;28;20035;-33
2021/11/22 09:26:31;;;;;;;4.68;1.27;;;;;;;15.40;75.96;102907.91;5120583;28;20043;-38
2021/11/22 09:29:02;;;;;;;4.60;0.80;;;;;;;15.67;74.85;102899.19;5128097;28;20039;-42
2021/11/22 09:31:29;;;;;;;5.53;1.20;;;;;;;15.92;73.21;102901.97;5120020;28;20035;-31
2021/11/22 09:33:57;;;;;;;4.43;1.20;;;;;;;16.14;71.43;102905.28;5126634;28;20039;-35
2021/11/22 09:36:26;;;;;;;2.97;1.00;;;;;;;16.36;70.34;102904.06;5118788;28;20076;-37
2021/11/22 09:38:54;;;;;;;5.40;1.17;;;;;;;16.54;69.42;102915.53;5117907;28;20044;-35
2021/11/22 09:41:26;;;;;;;4.63;0.90;;;;;;;16.73;68.15;102921.38;5123595;28;20490;-37
2021/11/22 09:43:56;;;;;;;5.57;1.13;;;;;;;16.92;66.61;102921.56;5124051;28;20047;-38
2021/11/22 09:46:25;;;;;;;2.70;0.65;;;;;;;17.09;65.32;102915.50;5117624;28;20055;-36
2021/11/22 09:48:53;;;;;;;3.22;0.68;;;;;;;17.24;64.40;102915.38;5119787;27;20055;-32
2021/11/22 09:51:21;;;;;;;2.50;0.80;;;;;;;17.35;63.18;102918.97;5124593;28;20043;-33
2021/11/22 09:53:48;;;;;;;3.22;0.98;;;;;;;17.45;62.02;102918.88;5122618;27;20493;-36
2021/11/22 09:56:16;;;;;;;2.72;0.60;;;;;;;17.55;61.67;102924.44;5123254;27;20070;-35
2021/11/22 09:58:45;;;;;;;4.32;0.82;;;;;;;17.67;60.45;102926.91;5126337;27;20139;-38
2021/11/22 10:01:16;;;;;;;5.28;0.73;;;;;;;17.78;60.17;102920.88;5124239;27;20079;-32
2021/11/22 10:04:00;;;;;;;3.22;0.90;;;;;;;17.94;58.91;102930.03;5126379;27;20063;-34
2021/11/22 10:06:28;;;;;;;3.10;0.77;;;;;;;17.84;59.48;102949.88;5125172;27;20054;-40
2021/11/22 10:08:56;;;;;;;3.13;0.75;;;;;;;17.41;58.88;102940.34;5123205;27;20046;-34
2021/11/22 10:11:24;;;;;;;4.03;0.70;;;;;;;16.89;59.64;102941.88;5124913;27;20047;-38
2021/11/22 10:13:52;;;;;;;1.70;0.43;;;;;;;16.34;60.85;102937.31;5122977;27;20035;-40
2021/11/22 10:16:23;;;;;;;1.95;0.57;;;;;;;15.87;62.94;102940.53;5126130;27;20044;-35
2021/11/22 10:18:55;;;;;;;2.17;0.50;;;;;;;15.44;64.31;102940.00;5127273;27;20484;-38
2021/11/22 10:21:25;;;;;;;2.55;0.45;;;;;;;15.03;65.16;102941.91;5121221;27;20054;-37
2021/11/22 10:24:02;;;;;;;1.83;0.30;;;;;;;14.62;65.99;102939.00;5122035;27;20055;-35
2021/11/22 10:26:38;;;;;;;2.38;0.50;;;;;;;14.33;67.10;102938.59;5128199;27;20043;-37
2021/11/22 10:29:06;;;;;;;3.47;0.70;;;;;;;14.16;68.22;102942.72;5126527;27;20421;-36
2021/11/22 10:31:34;;;;;;;5.60;0.80;;;;;;;14.16;68.97;102935.16;5120192;27;20047;-38
2021/11/22 10:34:06;;;;;;;4.45;0.77;;;;;;;14.32;69.08;102938.88;5129786;27;20055;-34
2021/11/22 10:36:37;;;;;;;2.20;0.60;;;;;;;14.47;68.05;102934.19;5117962;27;20074;-34
2021/11/22 10:39:07;;;;;;;2.42;0.55;;;;;;;14.51;66.73;102928.88;5122919;27;20096;-34
2021/11/22 10:41:37;;;;;;;2.15;0.40;;;;;;;14.49;66.88;102936.72;5130818;27;20047;-37
2021/11/22 10:44:07;;;;;;;2.53;0.50;;;;;;;14.56;67.02;102940.13;5123693;27;20043;-39
2021/11/22 10:46:41;;;;;;;2.38;0.52;;;;;;;14.68;66.28;102943.53;5117484;27;20134;-35
2021/11/22 10:49:13;;;;;;;4.32;0.90;;;;;;;14.82;65.70;102944.69;5124991;27;20387;-34
2021/11/22 10:51:45;;;;;;;3.55;0.70;;;;;;;14.96;65.55;102942.22;5130508;27;20047;-40
2021/11/22 10:54:14;;;;;;;3.03;0.70;;;;;;;15.07;64.69;102935.47;5122054;27;20061;-37
2021/11/22 10:56:45;;;;;;;2.65;0.50;;;;;;;15.16;64.62;102938.59;5118507;27;20049;-38
2021/11/22 10:59:14;;;;;;;4.43;0.60;;;;;;;15.25;64.30;102936.88;5126395;27;20039;-38
2021/11/22 11:01:44;;;;;;;2.75;0.60;;;;;;;15.29;63.92;102943.66;5127178;27;20493;-41
2021/11/22 11:04:20;;;;;;;3.35;0.70;;;;;;;15.31;63.31;102944.22;5120390;27;20413;-37
2021/11/22 11:06:58;;;;;;;3.10;0.88;;;;;;;15.26;62.93;102944.19;5119331;27;20422;-36
2021/11/22 11:09:29;;;;;;;5.78;1.17;;;;;;;15.23;63.29;102941.09;5126021;27;20405;-38
2021/11/22 11:12:13;;;;;;;2.38;0.63;;;;;;;15.22;63.36;102943.06;5124804;27;20412;-37
2021/11/22 11:14:44;;;;;;;3.25;0.60;;;;;;;15.24;63.47;102943.63;5125794;27;20051;-37
2021/11/22 11:17:18;;;;;;;4.50;0.80;;;;;;;15.22;62.71;102943.06;5126798;27;20046;-38
2021/11/22 11:19:49;;;;;;;4.45;0.70;;;;;;;15.15;62.46;102939.72;5120399;27;20125;-37
2021/11/22 11:22:18;;;;;;;6.35;0.98;;;;;;;15.05;62.01;102939.69;5120883;27;20131;-35
2021/11/22 11:24:46;;;;;;;4.38;0.70;;;;;;;14.93;61.59;102944.72;5120331;27;20043;-42
2021/11/22 11:27:31;;;;;;;3.47;0.88;;;;;;;14.81;61.52;102948.63;5120418;27;20057;-32
2021/11/22 11:30:00;;;;;;;5.90;0.82;;;;;;;14.73;61.43;102948.34;5125509;27;20039;-37
2021/11/22 11:32:28;;;;;;;4.78;1.02;;;;;;;14.69;61.66;102945.22;5124300;27;20047;-33
2021/11/22 11:34:59;;;;;;;4.10;0.75;;;;;;;14.79;62.09;102959.28;5119549;27;20042;-34
2021/11/22 11:37:45;;;;;;;1.92;0.60;;;;;;;14.87;61.35;102954.25;5122440;27;20070;-39
2021/11/22 11:40:26;;;;;;;6.60;0.95;;;;;;;14.80;61.74;102949.75;5119859;27;20040;-34